Time;durP1;ratioP1;P1;durP2;ratioP2;P2;SDS_P1;SDS_P2;PMS_P1;PMS_P2;Temp;Humidity;BMP_temperature;BMP_pressure;BME280_temperature;BME280_humidity;BME280_pressure;Samples;Min_cycle;Max_cycle;Signal;HPM_P1;HPM_P2
2023/05/25 00:00:47;;;;;;;;;;;;;;;10.14;76.09;101872.28;4194256;28;20024;-64
2023/05/25 00:02:53;;;;;;;;;;;;;;;10.11;76.29;101870.75;4194204;28;20006;-65
2023/05/25 00:04:57;;;;;;;;;;;;;;;10.07;76.56;101874.72;4192220;28;20027;-65
2023/05/25 00:07:00;;;;;;;;;;;;;;;10.03;76.77;101884.97;4194234;28;20377;-65
2023/05/25 00:09:02;;;;;;;;;;;;;;;10.01;76.97;101876.16;4194226;28;20030;-65
2023/05/25 00:11:04;;;;;;;;;;;;;;;9.98;77.14;101878.31;4193252;28;20035;-64
2023/05/25 00:13:06;;;;;;;;;;;;;;;9.96;77.35;101881.16;4193697;28;20027;-64
2023/05/25 00:15:08;;;;;;;;;;;;;;;9.97;77.24;101882.88;4194298;28;20019;-65
2023/05/25 00:17:10;;;;;;;;;;;;;;;9.96;77.44;101873.06;4194653;28;20351;-64
2023/05/25 00:19:12;;;;;;;;;;;;;;;9.92;77.46;101872.50;4194543;28;20032;-64
2023/05/25 00:21:14;;;;;;;;;;;;;;;9.92;77.46;101875.19;4193652;28;19978;-65
2023/05/25 00:23:18;;;;;;;;;;;;;;;9.92;77.52;101880.59;4194969;28;20019;-65
2023/05/25 00:25:20;;;;;;;;;;;;;;;9.90;77.58;101876.31;4194742;28;20083;-65
2023/05/25 00:27:23;;;;;;;;;;;;;;;9.87;77.86;101882.00;4194330;28;20011;-65
2023/05/25 00:29:26;;;;;;;;;;;;;;;9.83;77.88;101877.91;4193958;28;20035;-65
2023/05/25 00:31:28;;;;;;;;;;;;;;;9.78;77.86;101882.88;4193923;28;20043;-66
2023/05/25 00:33:30;;;;;;;;;;;;;;;9.74;78.31;101885.84;4194350;28;20067;-66
2023/05/25 00:35:32;;;;;;;;;;;;;;;9.71;78.37;101883.44;4193738;28;20035;-66
2023/05/25 00:37:34;;;;;;;;;;;;;;;9.69;78.39;101892.69;4196632;28;20383;-66
2023/05/25 00:39:38;;;;;;;;;;;;;;;9.63;78.90;101883.31;4197178;28;20019;-65
2023/05/25 00:41:43;;;;;;;;;;;;;;;9.61;78.54;101882.63;4212175;28;19971;-66
2023/05/25 00:43:45;;;;;;;;;;;;;;;9.60;79.04;101883.59;4197265;28;20044;-66
2023/05/25 00:45:47;;;;;;;;;;;;;;;9.60;79.07;101885.47;4196403;28;20019;-66
2023/05/25 00:47:50;;;;;;;;;;;;;;;9.59;78.88;101881.03;4197696;28;20071;-66
2023/05/25 00:49:52;;;;;;;;;;;;;;;9.59;78.96;101887.28;4197396;28;20043;-65
2023/05/25 00:51:54;;;;;;;;;;;;;;;9.57;78.92;101881.19;4197127;28;20027;-65
2023/05/25 00:53:56;;;;;;;;;;;;;;;9.52;78.92;101876.22;4197614;28;20043;-66
2023/05/25 00:56:06;;;;;;;;;;;;;;;9.50;78.98;101871.97;4198329;28;20011;-66
2023/05/25 00:58:08;;;;;;;;;;;;;;;9.49;79.50;101878.34;4197685;28;20020;-66
2023/05/25 01:00:10;;;;;;;;;;;;;;;9.47;79.43;101881.19;4196959;28;20024;-65
2023/05/25 01:02:15;;;;;;;;;;;;;;;9.45;79.53;101882.31;4196865;28;19982;-64
2023/05/25 01:04:18;;;;;;;;;;;;;;;9.43;79.46;101885.16;4197120;28;20449;-64
2023/05/25 01:06:21;;;;;;;;;;;;;;;9.40;79.55;101884.59;4196818;28;20018;-64
2023/05/25 01:08:24;;;;;;;;;;;;;;;9.39;79.58;101883.75;4196412;28;20016;-65
2023/05/25 01:10:27;;;;;;;;;;;;;;;9.38;79.54;101876.66;4195529;28;20015;-64
2023/05/25 01:12:30;;;;;;;;;;;;;;;9.35;79.56;101877.78;4196005;28;20035;-64
2023/05/25 01:14:32;;;;;;;;;;;;;;;9.32;79.92;101872.66;4196983;28;20026;-63
2023/05/25 01:16:34;;;;;;;;;;;;;;;9.30;79.71;101881.91;4196982;28;20015;-64
2023/05/25 01:18:40;;;;;;;;;;;;;;;9.25;79.92;101871.53;4197733;28;20477;-64
2023/05/25 01:20:52;;;;;;;;;;;;;;;9.23;80.05;101872.66;4198119;28;20028;-65
2023/05/25 01:22:55;;;;;;;;;;;;;;;9.19;80.07;101883.72;4195764;28;20574;-65
2023/05/25 01:25:01;;;;;;;;;;;;;;;9.16;80.20;101880.47;4196636;28;20019;-65
2023/05/25 01:27:04;;;;;;;;;;;;;;;9.13;80.59;101883.44;4196217;28;20027;-65
2023/05/25 01:29:06;;;;;;;;;;;;;;;9.11;80.62;101882.75;4196273;28;20015;-64
2023/05/25 01:31:09;;;;;;;;;;;;;;;9.08;80.96;101889.25;4196986;28;20044;-65
2023/05/25 01:33:11;;;;;;;;;;;;;;;9.06;80.66;101885.84;4196196;28;20489;-65
2023/05/25 01:35:13;;;;;;;;;;;;;;;9.05;81.05;101886.81;4204359;28;20704;-65
2023/05/25 01:37:18;;;;;;;;;;;;;;;9.03;81.05;101894.22;4186891;28;20012;-64
2023/05/25 01:39:21;;;;;;;;;;;;;;;9.01;81.02;101896.16;4213118;28;20015;-65
2023/05/25 01:41:23;;;;;;;;;;;;;;;9.00;81.38;101886.41;4196933;28;20011;-66
2023/05/25 01:43:25;;;;;;;;;;;;;;;8.99;81.37;101890.06;4196880;28;20405;-66
2023/05/25 01:45:27;;;;;;;;;;;;;;;9.00;81.59;101894.47;4193869;28;20007;-65
2023/05/25 01:47:30;;;;;;;;;;;;;;;8.97;81.39;101892.91;4196258;28;20363;-66
2023/05/25 01:49:32;;;;;;;;;;;;;;;8.98;81.41;101891.94;4197405;28;20028;-63
2023/05/25 01:51:36;;;;;;;;;;;;;;;8.94;81.02;101879.72;4197211;28;20386;-64
2023/05/25 01:53:40;;;;;;;;;;;;;;;8.94;81.61;101892.34;4212084;28;20386;-63
2023/05/25 01:55:43;;;;;;;;;;;;;;;8.93;81.61;101887.94;4195623;28;20457;-63
2023/05/25 01:57:46;;;;;;;;;;;;;;;8.96;82.03;101884.97;4196601;28;20034;-65
2023/05/25 01:59:48;;;;;;;;;;;;;;;8.96;81.55;101888.50;4196296;28;20466;-64
2023/05/25 02:01:50;;;;;;;;;;;;;;;8.97;81.76;101883.97;4195246;28;20303;-64
2023/05/25 02:03:52;;;;;;;;;;;;;;;8.97;81.46;101889.38;4196310;28;20015;-64
2023/05/25 02:05:56;;;;;;;;;;;;;;;8.99;81.25;101892.78;4195053;28;20040;-65
2023/05/25 02:07:58;;;;;;;;;;;;;;;8.97;81.42;101886.69;4193369;28;20027;-64
2023/05/25 02:10:02;;;;;;;;;;;;;;;8.92;81.13;101887.09;4196168;28;20020;-64
2023/05/25 02:12:05;;;;;;;;;;;;;;;8.89;81.20;101883.81;4195234;28;20482;-64
2023/05/25 02:14:07;;;;;;;;;;;;;;;8.86;81.45;101876.03;4195504;28;20466;-64
2023/05/25 02:16:09;;;;;;;;;;;;;;;8.82;81.50;101881.69;4194561;28;20011;-64
2023/05/25 02:18:13;;;;;;;;;;;;;;;8.80;81.69;101877.41;4196575;28;20024;-64
2023/05/25 02:20:15;;;;;;;;;;;;;;;8.77;82.05;101883.91;4194413;28;20011;-64
2023/05/25 02:22:17;;;;;;;;;;;;;;;8.76;81.92;101882.22;4195230;28;19967;-64
2023/05/25 02:24:20;;;;;;;;;;;;;;;8.74;82.10;101881.50;4195209;28;19935;-64
2023/05/25 02:26:23;;;;;;;;;;;;;;;8.73;82.38;101879.81;4196609;28;20099;-63
2023/05/25 02:28:25;;;;;;;;;;;;;;;8.72;82.25;101882.63;4196448;28;20023;-63
2023/05/25 02:30:27;;;;;;;;;;;;;;;8.73;82.62;101887.03;4195508;28;20024;-64
2023/05/25 02:32:34;;;;;;;;;;;;;;;8.73;82.37;101887.03;4212804;28;20091;-64
2023/05/25 02:34:37;;;;;;;;;;;;;;;8.72;82.28;101891.56;4195423;28;20493;-64
2023/05/25 02:36:42;;;;;;;;;;;;;;;8.75;82.54;101885.06;4196337;28;20430;-64
2023/05/25 02:38:44;;;;;;;;;;;;;;;8.75;82.22;101885.91;4195558;28;20409;-65
2023/05/25 02:40:46;;;;;;;;;;;;;;;8.73;81.95;101887.03;4187413;28;20075;-65
2023/05/25 02:42:50;;;;;;;;;;;;;;;8.72;82.17;101882.63;4186666;28;20016;-65
2023/05/25 02:44:52;;;;;;;;;;;;;;;8.72;82.07;101880.78;4193694;28;20761;-65
2023/05/25 02:46:54;;;;;;;;;;;;;;;8.74;82.08;101883.34;4195127;28;20023;-65
2023/05/25 02:48:58;;;;;;;;;;;;;;;8.77;82.00;101885.78;4196638;28;20031;-65
2023/05/25 02:51:01;;;;;;;;;;;;;;;8.78;81.88;101879.41;4212067;28;20031;-65
2023/05/25 02:53:03;;;;;;;;;;;;;;;8.78;81.75;101885.63;4211515;28;20019;-65
2023/05/25 02:55:08;;;;;;;;;;;;;;;8.76;81.67;101886.75;4194757;28;20019;-64
2023/05/25 02:57:12;;;;;;;;;;;;;;;8.79;82.12;101881.97;4186729;28;20453;-65
2023/05/25 02:59:16;;;;;;;;;;;;;;;8.84;81.91;101889.63;4194081;28;20393;-65
2023/05/25 03:01:18;;;;;;;;;;;;;;;8.90;81.94;101890.91;4211529;28;20378;-64
2023/05/25 03:03:25;;;;;;;;;;;;;;;8.88;81.40;101893.72;4195283;28;20020;-65
2023/05/25 03:05:27;;;;;;;;;;;;;;;8.86;81.52;101893.03;4195201;28;20279;-65
2023/05/25 03:07:29;;;;;;;;;;;;;;;8.86;81.92;101892.19;4195378;28;20388;-66
2023/05/25 03:09:32;;;;;;;;;;;;;;;8.89;81.93;101891.91;4195487;28;20014;-64
2023/05/25 03:11:35;;;;;;;;;;;;;;;8.85;81.31;101899.41;4211398;28;20460;-65
2023/05/25 03:13:39;;;;;;;;;;;;;;;8.81;81.62;101901.53;4211106;28;20030;-66
2023/05/25 03:15:43;;;;;;;;;;;;;;;8.77;81.82;101894.69;4192644;28;20419;-65
2023/05/25 03:17:45;;;;;;;;;;;;;;;8.76;81.82;101900.22;4193842;28;20012;-65
2023/05/25 03:19:48;;;;;;;;;;;;;;;8.73;82.05;101892.41;4193564;28;20016;-65
2023/05/25 03:21:50;;;;;;;;;;;;;;;8.68;82.17;101889.28;4186577;28;20024;-65
2023/05/25 03:23:54;;;;;;;;;;;;;;;8.66;82.11;101894.81;4193064;28;20078;-66
2023/05/25 03:25:56;;;;;;;;;;;;;;;8.68;82.54;101895.50;4195056;28;19946;-66
2023/05/25 03:27:59;;;;;;;;;;;;;;;8.67;82.28;101891.13;4194884;28;20441;-66
2023/05/25 03:30:02;;;;;;;;;;;;;;;8.66;82.52;101897.50;4186866;28;20437;-66
2023/05/25 03:32:07;;;;;;;;;;;;;;;8.66;82.61;101894.81;4192653;28;20011;-65
2023/05/25 03:34:10;;;;;;;;;;;;;;;8.66;82.35;101898.34;4209683;28;20015;-65
2023/05/25 03:36:16;;;;;;;;;;;;;;;8.65;82.31;101893.09;4193889;28;20015;-64
2023/05/25 03:38:18;;;;;;;;;;;;;;;8.62;82.51;101896.06;4193449;28;20015;-66
2023/05/25 03:40:21;;;;;;;;;;;;;;;8.60;82.73;101898.88;4194222;28;20389;-65
2023/05/25 03:42:23;;;;;;;;;;;;;;;8.61;82.99;101899.75;4208244;28;20583;-65
2023/05/25 03:44:25;;;;;;;;;;;;;;;8.64;83.11;101903.00;4176406;28;20020;-65
2023/05/25 03:46:27;;;;;;;;;;;;;;;8.63;83.16;101898.59;4190703;28;20410;-66
2023/05/25 03:48:34;;;;;;;;;;;;;;;8.63;83.29;101897.75;4194420;28;20011;-66
2023/05/25 03:50:36;;;;;;;;;;;;;;;8.66;83.57;101913.66;4194887;28;20015;-65
2023/05/25 03:52:38;;;;;;;;;;;;;;;8.65;83.55;101902.03;4193023;28;20028;-65
2023/05/25 03:54:40;;;;;;;;;;;;;;;8.70;83.54;101908.84;4193493;28;20365;-65
2023/05/25 03:56:42;;;;;;;;;;;;;;;8.70;83.78;101907.03;4193554;28;20020;-66
2023/05/25 03:58:44;;;;;;;;;;;;;;;8.72;83.65;101906.88;4194795;28;20012;-66
2023/05/25 04:00:47;;;;;;;;;;;;;;;8.73;83.74;101912.13;4193014;28;20019;-65
2023/05/25 04:02:49;;;;;;;;;;;;;;;8.79;83.81;101908.03;4194014;28;20395;-65
2023/05/25 04:04:53;;;;;;;;;;;;;;;8.83;83.89;101915.69;4193284;28;19955;-65
2023/05/25 04:06:55;;;;;;;;;;;;;;;8.83;83.86;101907.63;4191720;28;19928;-65
2023/05/25 04:08:57;;;;;;;;;;;;;;;8.85;84.22;101912.88;4191677;28;20059;-66
2023/05/25 04:10:59;;;;;;;;;;;;;;;8.88;84.27;101917.97;4193141;28;20007;-66
2023/05/25 04:13:03;;;;;;;;;;;;;;;8.92;84.30;101914.03;4192867;28;20389;-65
2023/05/25 04:15:08;;;;;;;;;;;;;;;8.96;84.54;101926.22;4193692;28;20032;-64
2023/05/25 04:17:17;;;;;;;;;;;;;;;9.01;84.48;101907.81;4191947;28;20359;-65
2023/05/25 04:19:19;;;;;;;;;;;;;;;9.05;84.61;101923.72;4194316;28;20023;-66
2023/05/25 04:21:24;;;;;;;;;;;;;;;9.10;84.63;101918.75;4194205;28;20079;-65
2023/05/25 04:23:26;;;;;;;;;;;;;;;9.12;84.80;101927.53;4193688;28;20019;-64
2023/05/25 04:25:30;;;;;;;;;;;;;;;9.19;84.96;101929.56;4210678;28;20023;-65
2023/05/25 04:27:34;;;;;;;;;;;;;;;9.26;85.18;101929.84;4209702;28;20011;-66
2023/05/25 04:29:36;;;;;;;;;;;;;;;9.32;84.96;101931.97;4194526;28;20019;-66
2023/05/25 04:31:57;;;;;;;;;;;;;;;9.40;85.23;101931.28;4193246;28;20506;-65
2023/05/25 04:34:20;;;;;;;;;;;;;;;9.47;85.10;101931.59;4193177;28;20032;-64
2023/05/25 04:36:37;;;;;;;;;;;;;;;9.52;84.99;101937.41;4193826;28;20019;-64
2023/05/25 04:38:41;;;;;;;;;;;;;;;9.59;85.26;101933.13;4210309;28;20485;-64
2023/05/25 04:40:45;;;;;;;;;;;;;;;9.64;84.92;101938.97;4193195;28;20019;-65
2023/05/25 04:42:48;;;;;;;;;;;;;;;9.68;85.22;101936.84;4191664;28;20019;-64
2023/05/25 04:44:52;;;;;;;;;;;;;;;9.73;85.57;101939.97;4191344;28;20019;-65
2023/05/25 04:46:54;;;;;;;;;;;;;;;9.82;85.64;101941.81;4192207;28;20044;-65
2023/05/25 04:49:08;;;;;;;;;;;;;;;9.90;85.69;101936.53;4192324;28;21455;-64
2023/05/25 04:51:11;;;;;;;;;;;;;;;9.97;85.75;101936.84;4193210;28;20361;-64
2023/05/25 04:53:14;;;;;;;;;;;;;;;10.05;85.86;101942.34;4192233;28;19956;-65
2023/05/25 04:55:17;;;;;;;;;;;;;;;10.12;85.70;101937.22;4192579;28;20027;-64
2023/05/25 04:57:20;;;;;;;;;;;;;;;10.22;85.95;101931.81;4192655;28;20015;-65
2023/05/25 04:59:22;;;;;;;;;;;;;;;10.29;85.90;101928.38;4202130;28;20023;-65
2023/05/25 05:01:29;;;;;;;;;;;;;;;10.39;85.93;101930.22;4194119;28;20023;-64
2023/05/25 05:03:36;;;;;;;;;;;;;;;10.48;85.66;101929.34;4193489;28;20482;-64
2023/05/25 05:05:39;;;;;;;;;;;;;;;10.58;85.45;101935.59;4209821;28;20382;-65
2023/05/25 05:07:44;;;;;;;;;;;;;;;10.66;85.52;101928.56;4210036;28;20026;-65
2023/05/25 05:09:48;;;;;;;;;;;;;;;10.73;85.17;101932.41;4193738;28;19981;-65
2023/05/25 05:11:50;;;;;;;;;;;;;;;10.79;85.31;101929.94;4193252;28;20027;-64
2023/05/25 05:13:53;;;;;;;;;;;;;;;10.89;85.10;101937.16;4193456;28;20027;-64
2023/05/25 05:15:55;;;;;;;;;;;;;;;10.96;85.09;101939.09;4193479;28;20015;-64
2023/05/25 05:17:58;;;;;;;;;;;;;;;11.02;84.67;101940.38;4193219;28;20027;-65
2023/05/25 05:20:00;;;;;;;;;;;;;;;11.07;84.29;101940.75;4193058;28;20015;-65
2023/05/25 05:22:02;;;;;;;;;;;;;;;11.14;83.99;101938.28;4193057;28;20027;-64
2023/05/25 05:24:04;;;;;;;;;;;;;;;11.21;84.21;101936.69;4195536;28;20454;-64
2023/05/25 05:26:10;;;;;;;;;;;;;;;11.26;83.86;101934.38;4196107;28;20450;-64
2023/05/25 05:28:12;;;;;;;;;;;;;;;11.31;83.47;101931.22;4195294;28;20453;-64
2023/05/25 05:30:16;;;;;;;;;;;;;;;11.32;83.14;101924.81;4212040;28;20026;-65
2023/05/25 05:32:18;;;;;;;;;;;;;;;11.42;83.13;101935.56;4212007;28;20038;-64
2023/05/25 05:34:20;;;;;;;;;;;;;;;11.49;83.26;101939.38;4196315;28;20020;-64
2023/05/25 05:36:23;;;;;;;;;;;;;;;11.56;82.83;101950.41;4211155;28;20388;-64
2023/05/25 05:38:26;;;;;;;;;;;;;;;11.62;82.62;101952.50;4194399;28;20011;-65
2023/05/25 05:40:28;;;;;;;;;;;;;;;11.67;82.83;101948.31;4194894;28;20030;-65
2023/05/25 05:42:31;;;;;;;;;;;;;;;11.73;82.48;101946.84;4211996;28;20042;-65
2023/05/25 05:44:33;;;;;;;;;;;;;;;11.79;82.34;101954.34;4195702;28;20043;-64
2023/05/25 05:46:36;;;;;;;;;;;;;;;11.83;81.64;101947.63;4196218;28;20015;-65
2023/05/25 05:48:38;;;;;;;;;;;;;;;11.88;81.51;101953.44;4179705;28;20450;-65
2023/05/25 05:50:40;;;;;;;;;;;;;;;11.92;81.42;101955.81;4212171;28;19928;-66
2023/05/25 05:52:42;;;;;;;;;;;;;;;11.96;81.13;101959.94;4209610;28;20027;-65
2023/05/25 05:54:46;;;;;;;;;;;;;;;12.00;81.48;101962.16;4195439;28;20023;-66
2023/05/25 05:56:50;;;;;;;;;;;;;;;12.04;81.07;101955.44;4196384;28;20019;-64
2023/05/25 05:58:53;;;;;;;;;;;;;;;12.09;80.90;101965.81;4211816;28;20066;-65
2023/05/25 06:00:56;;;;;;;;;;;;;;;12.14;80.86;101957.22;4193890;28;20368;-65
2023/05/25 06:02:59;;;;;;;;;;;;;;;12.20;80.70;101962.00;4193952;28;20399;-64
2023/05/25 06:05:03;;;;;;;;;;;;;;;12.25;80.12;101965.91;4195455;28;20015;-65
2023/05/25 06:07:05;;;;;;;;;;;;;;;12.31;80.15;101974.44;4195892;28;20450;-65
2023/05/25 06:09:07;;;;;;;;;;;;;;;12.36;80.02;101977.50;4191935;28;20027;-65
2023/05/25 06:11:09;;;;;;;;;;;;;;;12.38;79.10;101976.38;4194661;28;20438;-66
2023/05/25 06:13:11;;;;;;;;;;;;;;;12.40;79.20;101977.03;4195533;28;20442;-66
2023/05/25 06:15:15;;;;;;;;;;;;;;;12.44;78.84;101975.72;4195444;28;20475;-65
2023/05/25 06:17:17;;;;;;;;;;;;;;;12.50;79.04;101984.22;4188240;28;20022;-65
2023/05/25 06:19:19;;;;;;;;;;;;;;;12.52;78.05;101977.63;4195968;28;20019;-65
2023/05/25 06:21:23;;;;;;;;;;;;;;;12.58;77.88;101976.13;4196091;28;20682;-66
2023/05/25 06:23:26;;;;;;;;;;;;;;;12.61;77.18;101976.66;4195301;28;20018;-66
2023/05/25 06:25:28;;;;;;;;;;;;;;;12.65;76.91;101971.78;4195691;28;20022;-66
2023/05/25 06:27:31;;;;;;;;;;;;;;;12.67;76.88;101972.47;4170359;28;20056;-66
2023/05/25 06:29:33;;;;;;;;;;;;;;;12.69;76.64;101975.03;4194667;28;20011;-64
2023/05/25 06:31:37;;;;;;;;;;;;;;;12.73;76.51;101979.13;4194784;28;19932;-66
2023/05/25 06:33:39;;;;;;;;;;;;;;;12.75;76.34;101979.78;4194820;28;20023;-65
2023/05/25 06:35:42;;;;;;;;;;;;;;;12.79;75.98;101981.19;4194933;28;20015;-66
2023/05/25 06:37:45;;;;;;;;;;;;;;;12.82;75.50;101985.41;4194923;28;20020;-66
2023/05/25 06:39:47;;;;;;;;;;;;;;;12.84;74.62;101986.13;4195330;28;20015;-66
2023/05/25 06:41:49;;;;;;;;;;;;;;;12.87;74.05;101991.19;4195891;28;20369;-65
2023/05/25 06:44:02;;;;;;;;;;;;;;;12.89;73.24;101989.19;4194888;28;20011;-65
2023/05/25 06:46:08;;;;;;;;;;;;;;;12.92;72.01;101989.72;4195048;28;20086;-66
2023/05/25 06:48:11;;;;;;;;;;;;;;;12.95;71.13;101989.38;4211181;28;20019;-65
2023/05/25 06:50:13;;;;;;;;;;;;;;;12.98;71.52;101991.78;4196249;28;20103;-65
2023/05/25 06:52:15;;;;;;;;;;;;;;;13.00;71.42;101994.31;4195639;28;20375;-66
2023/05/25 06:54:18;;;;;;;;;;;;;;;13.03;70.02;101994.00;4193646;28;20011;-65
2023/05/25 06:56:20;;;;;;;;;;;;;;;13.05;68.98;101983.00;4195774;28;20027;-66
2023/05/25 06:58:22;;;;;;;;;;;;;;;13.07;68.57;101984.53;4195775;28;20715;-65
2023/05/25 07:00:24;;;;;;;;;;;;;;;13.12;69.01;101981.34;4195167;28;20446;-65
2023/05/25 07:02:26;;;;;;;;;;;;;;;13.16;68.58;101985.41;4194801;28;20393;-65
2023/05/25 07:04:30;;;;;;;;;;;;;;;13.17;67.42;101981.69;4195384;28;20011;-66
2023/05/25 07:06:32;;;;;;;;;;;;;;;13.17;67.27;101978.97;4195732;28;20377;-66
2023/05/25 07:08:33;;;;;;;;;;;;;;;13.21;67.51;101983.03;4195639;28;20008;-65
2023/05/25 07:10:36;;;;;;;;;;;;;;;13.25;66.30;101989.84;4194868;28;20055;-66
2023/05/25 07:12:38;;;;;;;;;;;;;;;13.26;66.11;101985.25;4195289;28;19966;-66
2023/05/25 07:14:40;;;;;;;;;;;;;;;13.27;65.65;101979.66;4195668;28;20032;-66
2023/05/25 07:16:43;;;;;;;;;;;;;;;13.30;66.36;101987.47;4194950;28;20023;-64
2023/05/25 07:18:46;;;;;;;;;;;;;;;13.36;65.58;101982.47;4195478;28;20027;-66
2023/05/25 07:20:50;;;;;;;;;;;;;;;13.38;65.43;101988.56;4195418;28;20028;-65
2023/05/25 07:22:54;;;;;;;;;;;;;;;13.39;65.44;101984.84;4195482;28;20058;-66
2023/05/25 07:24:56;;;;;;;;;;;;;;;13.42;64.60;101989.94;4194582;28;20054;-65
2023/05/25 07:26:57;;;;;;;;;;;;;;;13.44;64.83;101990.63;4195679;28;20015;-65
2023/05/25 07:29:00;;;;;;;;;;;;;;;13.50;65.07;101992.69;4195485;28;20031;-65
2023/05/25 07:31:02;;;;;;;;;;;;;;;13.58;65.67;101994.56;4195326;28;20604;-65
2023/05/25 07:33:04;;;;;;;;;;;;;;;13.64;64.84;101992.03;4194244;28;20471;-65
2023/05/25 07:35:06;;;;;;;;;;;;;;;13.67;63.91;101994.41;4194969;28;20019;-64
2023/05/25 07:37:09;;;;;;;;;;;;;;;13.68;64.00;101995.25;4194913;28;20027;-65
2023/05/25 07:39:13;;;;;;;;;;;;;;;13.70;63.94;101999.50;4194892;28;20020;-65
2023/05/25 07:41:15;;;;;;;;;;;;;;;13.76;64.30;101997.13;4193903;28;20024;-66
2023/05/25 07:43:17;;;;;;;;;;;;;;;13.78;63.10;101995.13;4194634;28;20019;-66
2023/05/25 07:45:22;;;;;;;;;;;;;;;13.78;63.15;102000.53;4194293;28;20028;-65
2023/05/25 07:47:23;;;;;;;;;;;;;;;13.82;63.21;101993.75;4195090;28;20039;-65
2023/05/25 07:49:25;;;;;;;;;;;;;;;13.90;63.58;102001.06;4194687;28;20023;-65
2023/05/25 07:51:29;;;;;;;;;;;;;;;13.97;63.06;101999.38;4195023;28;20471;-64
2023/05/25 07:53:35;;;;;;;;;;;;;;;13.99;62.86;101995.44;4193917;28;20564;-66
2023/05/25 07:55:37;;;;;;;;;;;;;;;14.00;62.40;101996.31;4194013;28;20011;-66
2023/05/25 07:57:39;;;;;;;;;;;;;;;14.00;62.65;101999.88;4193864;28;20023;-65
2023/05/25 07:59:41;;;;;;;;;;;;;;;13.99;62.14;101998.16;4194627;28;20019;-65
2023/05/25 08:01:43;;;;;;;;;;;;;;;14.00;62.46;102001.75;4193947;28;20031;-66
2023/05/25 08:03:45;;;;;;;;;;;;;;;14.00;62.19;102008.03;4193223;28;20007;-65
2023/05/25 08:05:47;;;;;;;;;;;;;;;13.99;62.11;102006.31;4194747;28;20355;-65
2023/05/25 08:07:49;;;;;;;;;;;;;;;14.02;62.14;102008.69;4193970;28;20023;-66
2023/05/25 08:09:52;;;;;;;;;;;;;;;14.03;61.90;102010.41;4194612;28;20026;-65
2023/05/25 08:11:54;;;;;;;;;;;;;;;14.04;61.61;102000.38;4194327;28;20709;-66
2023/05/25 08:13:56;;;;;;;;;;;;;;;14.08;61.70;102006.34;4194437;28;20031;-66
2023/05/25 08:15:58;;;;;;;;;;;;;;;14.10;61.76;102002.41;4192785;28;20011;-65
2023/05/25 08:18:02;;;;;;;;;;;;;;;14.13;61.54;102006.69;4194649;28;20043;-66
2023/05/25 08:20:06;;;;;;;;;;;;;;;14.16;61.70;102007.19;4193959;28;20007;-67
2023/05/25 08:22:09;;;;;;;;;;;;;;;14.18;61.38;101999.69;4194797;28;20024;-65
2023/05/25 08:24:10;;;;;;;;;;;;;;;14.19;61.19;101995.13;4194864;28;20028;-66
2023/05/25 08:26:14;;;;;;;;;;;;;;;14.24;61.41;102003.59;4194808;28;20007;-64
2023/05/25 08:28:16;;;;;;;;;;;;;;;14.27;61.07;102008.69;4193951;28;20043;-65
2023/05/25 08:30:18;;;;;;;;;;;;;;;14.31;61.03;102006.47;4194200;28;20027;-66
2023/05/25 08:32:20;;;;;;;;;;;;;;;14.36;60.82;102010.41;4193861;28;20118;-66
2023/05/25 08:34:22;;;;;;;;;;;;;;;14.42;61.02;101998.00;4193927;28;20373;-65
2023/05/25 08:36:24;;;;;;;;;;;;;;;14.46;60.67;102007.50;4193106;28;20032;-66
2023/05/25 08:38:26;;;;;;;;;;;;;;;14.49;60.34;102009.03;4194490;28;20347;-65
2023/05/25 08:40:28;;;;;;;;;;;;;;;14.55;60.06;102011.06;4194106;28;20015;-66
2023/05/25 08:42:32;;;;;;;;;;;;;;;14.60;59.75;102011.41;4193959;28;20027;-65
2023/05/25 08:44:35;;;;;;;;;;;;;;;14.57;59.54;102011.72;4194092;28;20015;-65
2023/05/25 08:46:37;;;;;;;;;;;;;;;14.56;59.57;102008.16;4193926;28;20035;-65
2023/05/25 08:48:39;;;;;;;;;;;;;;;14.55;59.54;102003.75;4194178;28;20015;-66
2023/05/25 08:50:42;;;;;;;;;;;;;;;14.54;59.78;102001.19;4193937;28;20023;-66
2023/05/25 08:52:45;;;;;;;;;;;;;;;14.52;59.93;102005.97;4191286;28;20026;-65
2023/05/25 08:54:47;;;;;;;;;;;;;;;14.54;59.92;101991.16;4193944;28;20445;-66
2023/05/25 08:56:50;;;;;;;;;;;;;;;14.59;59.69;102001.53;4193775;28;20035;-65
2023/05/25 08:59:08;;;;;;;;;;;;;;;14.67;59.60;101996.13;4195963;28;20024;-66
2023/05/25 09:01:11;;;;;;;;;;;;;;;14.75;59.17;102006.97;4196704;28;20450;-66
2023/05/25 09:03:13;;;;;;;;;;;;;;;14.81;58.75;101997.28;4197164;28;20027;-66
2023/05/25 09:05:15;;;;;;;;;;;;;;;14.87;58.62;102006.59;4197368;28;20030;-66
2023/05/25 09:07:18;;;;;;;;;;;;;;;14.88;58.36;102000.97;4213287;28;20444;-66
2023/05/25 09:09:20;;;;;;;;;;;;;;;14.88;58.44;102000.16;4197714;28;20551;-65
2023/05/25 09:11:22;;;;;;;;;;;;;;;14.84;58.66;102005.06;4197136;28;20020;-65
2023/05/25 09:13:24;;;;;;;;;;;;;;;14.83;58.33;102014.25;4196741;28;20019;-65
2023/05/25 09:15:29;;;;;;;;;;;;;;;14.85;58.87;102014.94;4196733;28;20441;-65
2023/05/25 09:17:31;;;;;;;;;;;;;;;14.88;58.69;102009.13;4197667;28;20019;-66
2023/05/25 09:19:33;;;;;;;;;;;;;;;14.88;58.25;102011.88;4197975;28;20028;-65
2023/05/25 09:21:36;;;;;;;;;;;;;;;14.91;58.63;102025.13;4197229;28;20087;-66
2023/05/25 09:23:38;;;;;;;;;;;;;;;14.96;58.21;102014.56;4196740;28;20007;-65
2023/05/25 09:25:40;;;;;;;;;;;;;;;14.94;58.46;102022.03;4197261;28;20362;-66
2023/05/25 09:27:42;;;;;;;;;;;;;;;14.93;58.55;102024.94;4197330;28;20031;-65
2023/05/25 09:29:45;;;;;;;;;;;;;;;14.92;58.39;102025.94;4196200;28;20015;-66
2023/05/25 09:31:48;;;;;;;;;;;;;;;14.92;58.70;102012.34;4196500;28;20022;-65
2023/05/25 09:33:54;;;;;;;;;;;;;;;14.96;58.20;102014.56;4197020;28;20024;-65
2023/05/25 09:35:56;;;;;;;;;;;;;;;14.98;58.19;102016.25;4196966;28;20510;-65
2023/05/25 09:37:59;;;;;;;;;;;;;;;15.02;58.33;102012.19;4196162;28;20015;-65
2023/05/25 09:40:01;;;;;;;;;;;;;;;15.07;58.11;102010.59;4197215;28;20035;-65
2023/05/25 09:42:03;;;;;;;;;;;;;;;15.08;58.02;102009.59;4196647;28;20031;-65
2023/05/25 09:44:05;;;;;;;;;;;;;;;15.13;57.54;102014.50;4196314;28;20011;-65
2023/05/25 09:46:07;;;;;;;;;;;;;;;15.19;57.56;102010.22;4196390;28;20380;-65
2023/05/25 09:48:11;;;;;;;;;;;;;;;15.25;57.40;102018.53;4196863;28;20356;-65
2023/05/25 09:50:13;;;;;;;;;;;;;;;15.24;57.37;102018.72;4196529;28;20450;-65
2023/05/25 09:52:15;;;;;;;;;;;;;;;15.19;57.44;102013.81;4195566;28;20442;-66
2023/05/25 09:54:17;;;;;;;;;;;;;;;15.16;57.56;102016.00;4195797;28;20020;-66
2023/05/25 09:56:19;;;;;;;;;;;;;;;15.18;57.59;102020.25;4196501;28;19982;-66
2023/05/25 09:58:22;;;;;;;;;;;;;;;15.28;57.04;102018.19;4196403;28;20436;-66
2023/05/25 10:00:24;;;;;;;;;;;;;;;15.39;57.13;102016.09;4195992;28;20023;-66
2023/05/25 10:02:26;;;;;;;;;;;;;;;15.45;56.70;102018.09;4194977;28;20026;-66
2023/05/25 10:04:29;;;;;;;;;;;;;;;15.45;56.38;102018.97;4196804;28;20028;-66
2023/05/25 10:06:32;;;;;;;;;;;;;;;15.48;56.58;102024.03;4195344;28;20023;-65
2023/05/25 10:08:34;;;;;;;;;;;;;;;15.44;56.62;102016.41;4195559;28;20184;-64
2023/05/25 10:10:35;;;;;;;;;;;;;;;15.39;56.68;102027.84;4194911;28;20028;-65
2023/05/25 10:12:38;;;;;;;;;;;;;;;15.38;56.82;102017.13;4196223;28;20008;-65
2023/05/25 10:14:40;;;;;;;;;;;;;;;15.41;56.97;102017.59;4196398;28;20016;-65
2023/05/25 10:16:42;;;;;;;;;;;;;;;15.52;56.08;102015.50;4195256;28;20450;-64
2023/05/25 10:18:47;;;;;;;;;;;;;;;15.58;56.11;102020.22;4196174;28;20375;-64
2023/05/25 10:20:50;;;;;;;;;;;;;;;15.61;55.89;102023.47;4196618;28;20023;-66
2023/05/25 10:22:54;;;;;;;;;;;;;;;15.60;55.94;102010.88;4196290;28;20027;-65
2023/05/25 10:24:57;;;;;;;;;;;;;;;15.56;55.88;102019.56;4195551;28;20349;-65
2023/05/25 10:27:00;;;;;;;;;;;;;;;15.54;56.39;102014.31;4196598;28;20015;-66
2023/05/25 10:29:03;;;;;;;;;;;;;;;15.58;55.87;102021.09;4197242;28;20027;-65
2023/05/25 10:31:05;;;;;;;;;;;;;;;15.57;56.17;102018.56;4196257;28;20018;-65
2023/05/25 10:33:07;;;;;;;;;;;;;;;15.55;56.24;102024.19;4195415;28;20032;-66
2023/05/25 10:35:09;;;;;;;;;;;;;;;15.54;56.46;102021.63;4196432;28;20397;-66